Airfield :







YOU CAN JOIN US ON...

 
LOGIN :

Register | Disclaimer

   EN    FR    IT 

 









Legend :    VFR   Marginal VFR   IFR   Intensive IFR   Very Intensive IFR
Visi :
Ceiling :
>= 8 km
>= 3000ft
5 to 8 km
1000 to 3000 ft
1500m to 5 km
500 to 1000 ft
800 to 1500m
200 to 500 ft
< 800m
< 200 ft
Symbols :   Thunderstorms  Fog  Heavy snow  Heavy precipitations  Wind > 20 kt






- Airport Elevation : 1040 ft


KAFN - Jaffrey Silver Ranch

CURRENT METAR :
  • 201852Z AUTO VRB03KT 10SM CLR 14/03 A3006 RMK AO2 SLP189 T01440033

EXPIRED METARs :
  • 201752Z AUTO 00000KT 10SM OVC110 14/03 A3006 RMK AO2 SLP190 I6000 T01390033 10139 21006 56011
  • 201652Z AUTO 16005KT 10SM CLR 14/03 A3006 RMK AO2 SLP190 T01390028

TAF N/A



MET'MAP, your aeronautical weather chart ! - Copyright ORBIFLY December 2007 - Disclaimer

ORBIFLY MET'MAP TEAM :

Programming & Development : Alexandra Zaïnal
Concept & Development : Baudouin d'Aumeries
Co-Development & Prog : Marc-Olivier Méhu
Technical & hardware support : Manuel Goepfert

Contact : metmap@orbifly.com




SOURCES & CREDITS :

   NOAA